KSHV/SHV METAR and TAF weather

Enter ICAO airport designator
Station Type Date Time Source
KSHV METAR 2024/04/18 06:56 UTC NOAA

KSHV 180656Z 16014KT 10SM BKN150 OVC280 24/21 A2990 RMK SLPNO


Station Type Date Time Source
KSHV Decoded METAR 2024/04/18 06:56 UTC NOAA

SHREVEPORT REGIONAL AIRPORT, LA, United States (KSHV) 32-27N 93-50W 80M
Apr 18, 2024 - 02:56 AM EDT / 2024.04.18 0656 UTC
Wind: from the SSE (160 degrees) at 16 MPH (14 KT):0
Visibility: 10 mile(s):0
Sky conditions: overcast
Temperature: 75 F (24 C)
Dew Point: 69 F (21 C)
Relative Humidity: 83%
Pressure (altimeter): 29.9 in. Hg (1012 hPa)
ob: KSHV 180656Z 16014KT 10SM BKN150 OVC280 24/21 A2990 RMK SLPNO
cycle: 7

Station Type Date Time Source
KSHV TAF 2024/04/18 06:30 UTC NOAA